Observation data for Northwest Lubbock on 08/15/2019      Previous  Date       Current Mesonet Observations  Soil Data  Daily Summary Page  Observations in Plain Language
KLBW 150500Z 12007G12KT 28/15 A3017 RMK A01 T02760151  RH  048%=      5-min Rain = 0
KLBW 150505Z 12007KT 28/15 A3017 RMK A01 T02760151  RH  049%=      5-min Rain = 0
KLBW 150510Z 12008G13KT 28/15 A3017 RMK A01 T02760153  RH  049%=      5-min Rain = 0
KLBW 150515Z 12009KT 28/15 A3017 RMK A01 T02760153  RH  049%=      5-min Rain = 0
KLBW 150520Z 12011G16KT 28/15 A3017 RMK A01 T02760153  RH  049%=      5-min Rain = 0
KLBW 150525Z 12011G17KT 28/15 A3017 RMK A01 T02760153  RH  049%=      5-min Rain = 0
KLBW 150530Z 12010G15KT 28/15 A3017 RMK A01 T02750153  RH  050%=      5-min Rain = 0
KLBW 150535Z 12008G14KT 27/15 A3017 RMK A01 T02740153  RH  050%=      5-min Rain = 0
KLBW 150540Z 12008G13KT 27/15 A3017 RMK A01 T02720154  RH  051%=      5-min Rain = 0
KLBW 150545Z 12009KT 27/15 A3017 RMK A01 T02710154  RH  051%=      5-min Rain = 0
KLBW 150550Z 12007KT 27/15 A3017 RMK A01 T02700154  RH  051%=      5-min Rain = 0
KLBW 150555Z 12009G15KT 27/15 A3017 RMK A01 T02690154  RH  052%=      5-min Rain = 0
KLBW 150600Z 13009G15KT 27/15 A3017 RMK A01 T02700154  RH  051%=      5-min Rain = 0
KLBW 150605Z 12008KT 27/15 A3017 RMK A01 T02690154  RH  052%=      5-min Rain = 0
KLBW 150610Z 12007KT 27/16 A3017 RMK A01 T02670155  RH  052%=      5-min Rain = 0
KLBW 150615Z 12009KT 27/16 A3018 RMK A01 T02670155  RH  053%=      5-min Rain = 0
KLBW 150620Z 12010KT 27/16 A3018 RMK A01 T02670156  RH  053%=      5-min Rain = 0
KLBW 150625Z 12008G14KT 27/16 A3018 RMK A01 T02680156  RH  053%=      5-min Rain = 0
KLBW 150630Z 12008G14KT 27/16 A3018 RMK A01 T02660157  RH  054%=      5-min Rain = 0
KLBW 150635Z 12009G14KT 27/16 A3018 RMK A01 T02660158  RH  054%=      5-min Rain = 0
KLBW 150640Z 12008KT 27/16 A3018 RMK A01 T02650158  RH  054%=      5-min Rain = 0
KLBW 150645Z 12008G14KT 26/16 A3018 RMK A01 T02640158  RH  054%=      5-min Rain = 0
KLBW 150650Z 13010KT 26/16 A3018 RMK A01 T02640157  RH  054%=      5-min Rain = 0
KLBW 150655Z 13009KT 26/16 A3018 RMK A01 T02630157  RH  055%=      5-min Rain = 0
KLBW 150700Z 13007G12KT 26/16 A3018 RMK A01 T02610157  RH  055%=      5-min Rain = 0
KLBW 150705Z 13009KT 26/16 A3018 RMK A01 T02600157  RH  055%=      5-min Rain = 0
KLBW 150710Z 13008KT 26/16 A3018 RMK A01 T02600157  RH  056%=      5-min Rain = 0
KLBW 150715Z 13007KT 26/16 A3018 RMK A01 T02590157  RH  056%=      5-min Rain = 0
KLBW 150720Z 13007KT 26/16 A3019 RMK A01 T02580158  RH  057%=      5-min Rain = 0
KLBW 150725Z 13007KT 26/16 A3019 RMK A01 T02570158  RH  057%=      5-min Rain = 0
KLBW 150730Z 13006KT 26/16 A3018 RMK A01 T02550159  RH  058%=      5-min Rain = 0
KLBW 150735Z 12008KT 26/16 A3018 RMK A01 T02560159  RH  058%=      5-min Rain = 0
KLBW 150740Z 13006KT 26/16 A3018 RMK A01 T02560159  RH  058%=      5-min Rain = 0
KLBW 150745Z 13007KT 26/16 A3018 RMK A01 T02550159  RH  058%=      5-min Rain = 0
KLBW 150750Z 14006KT 26/16 A3018 RMK A01 T02550159  RH  058%=      5-min Rain = 0
KLBW 150755Z 14008KT 25/16 A3018 RMK A01 T02540159  RH  058%=      5-min Rain = 0
KLBW 150800Z 15007G12KT 26/16 A3018 RMK A01 T02560160  RH  058%=      5-min Rain = 0
KLBW 150805Z 14008KT 26/16 A3018 RMK A01 T02550159  RH  058%=      5-min Rain = 0
KLBW 150810Z 14007KT 25/16 A3018 RMK A01 T02540160  RH  059%=      5-min Rain = 0
KLBW 150815Z 14006KT 25/16 A3018 RMK A01 T02520160  RH  060%=      5-min Rain = 0
KLBW 150820Z 15006G11KT 25/16 A3018 RMK A01 T02510160  RH  060%=      5-min Rain = 0
KLBW 150825Z 15006KT 25/16 A3018 RMK A01 T02500160  RH  060%=      5-min Rain = 0
KLBW 150830Z 14006KT 25/16 A3018 RMK A01 T02500160  RH  060%=      5-min Rain = 0
KLBW 150835Z 12004KT 25/16 A3017 RMK A01 T02490161  RH  061%=      5-min Rain = 0
KLBW 150840Z 12004KT 25/16 A3017 RMK A01 T02460161  RH  062%=      5-min Rain = 0
KLBW 150845Z 12004KT 25/16 A3017 RMK A01 T02450161  RH  063%=      5-min Rain = 0
KLBW 150850Z 13004KT 24/16 A3017 RMK A01 T02440162  RH  063%=      5-min Rain = 0
KLBW 150855Z 13004KT 24/16 A3017 RMK A01 T02420162  RH  064%=      5-min Rain = 0
KLBW 150900Z 16004KT 24/16 A3017 RMK A01 T02420161  RH  064%=      5-min Rain = 0
KLBW 150905Z 20004KT 24/16 A3017 RMK A01 T02400161  RH  064%=      5-min Rain = 0
KLBW 150910Z 20004KT 24/16 A3017 RMK A01 T02370160  RH  065%=      5-min Rain = 0
KLBW 150915Z 20002KT 24/16 A3017 RMK A01 T02370160  RH  065%=      5-min Rain = 0
KLBW 150920Z 25002KT 24/16 A3017 RMK A01 T02350160  RH  066%=      5-min Rain = 0
KLBW 150925Z 26003KT 23/16 A3017 RMK A01 T02320160  RH  067%=      5-min Rain = 0
KLBW 150930Z 27003KT 23/16 A3017 RMK A01 T02300160  RH  068%=      5-min Rain = 0
KLBW 150935Z 27002KT 23/16 A3017 RMK A01 T02300160  RH  068%=      5-min Rain = 0
KLBW 150940Z 26001KT 23/16 A3017 RMK A01 T02300160  RH  068%=      5-min Rain = 0
KLBW 150945Z 26002KT 23/16 A3016 RMK A01 T02290160  RH  068%=      5-min Rain = 0
KLBW 150950Z 26002KT 23/16 A3016 RMK A01 T02300163  RH  069%=      5-min Rain = 0
KLBW 150955Z 26003KT 23/16 A3016 RMK A01 T02290160  RH  068%=      5-min Rain = 0
KLBW 151000Z 25003KT 22/16 A3015 RMK A01 T02220158  RH  070%=      5-min Rain = 0
KLBW 151005Z 27002KT 22/16 A3015 RMK A01 T02220158  RH  071%=      5-min Rain = 0
KLBW 151010Z 28002KT 22/16 A3015 RMK A01 T02210157  RH  071%=      5-min Rain = 0
KLBW 151015Z 28003KT 22/16 A3015 RMK A01 T02190160  RH  072%=      5-min Rain = 0
KLBW 151020Z 28002KT 22/16 A3015 RMK A01 T02180160  RH  073%=      5-min Rain = 0
KLBW 151025Z 27002KT 22/16 A3015 RMK A01 T02150157  RH  073%=      5-min Rain = 0
KLBW 151030Z 27001KT 21/16 A3014 RMK A01 T02120158  RH  075%=      5-min Rain = 0
KLBW 151035Z 27000KT 21/16 A3014 RMK A01 T02110157  RH  074%=      5-min Rain = 0
KLBW 151040Z 00000KT 21/15 A3015 RMK A01 T02080148  RH  071%=      5-min Rain = 0
KLBW 151045Z 28000KT 21/15 A3015 RMK A01 T02070150  RH  073%=      5-min Rain = 0
KLBW 151050Z 28002KT 21/16 A3014 RMK A01 T02090160  RH  077%=      5-min Rain = 0
KLBW 151055Z 09002KT 21/16 A3014 RMK A01 T02110162  RH  078%=      5-min Rain = 0
KLBW 151100Z 10002KT 21/16 A3015 RMK A01 T02100163  RH  078%=      5-min Rain = 0
KLBW 151105Z 10003KT 21/17 A3015 RMK A01 T02110165  RH  079%=      5-min Rain = 0
KLBW 151110Z 10003KT 21/17 A3015 RMK A01 T02110166  RH  079%=      5-min Rain = 0
KLBW 151115Z 10004KT 21/17 A3015 RMK A01 T02120167  RH  079%=      5-min Rain = 0
KLBW 151120Z 10002KT 21/17 A3015 RMK A01 T02110165  RH  079%=      5-min Rain = 0
KLBW 151125Z 09002KT 21/16 A3015 RMK A01 T02090157  RH  076%=      5-min Rain = 0
KLBW 151130Z 09003KT 21/16 A3015 RMK A01 T02090158  RH  076%=      5-min Rain = 0
KLBW 151135Z 09003KT 21/16 A3015 RMK A01 T02120163  RH  077%=      5-min Rain = 0
KLBW 151140Z 09002KT 21/16 A3015 RMK A01 T02110162  RH  077%=      5-min Rain = 0
KLBW 151145Z 09002KT 21/16 A3015 RMK A01 T02110162  RH  077%=      5-min Rain = 0
KLBW 151150Z 09003KT 21/16 A3015 RMK A01 T02120164  RH  077%=      5-min Rain = 0
KLBW 151155Z 08002KT 21/16 A3015 RMK A01 T02110159  RH  076%=      5-min Rain = 0
KLBW 151200Z 07003KT 21/16 A3015 RMK A01 T02110159  RH  076%=      5-min Rain = 0
KLBW 151205Z 07003KT 21/16 A3015 RMK A01 T02130161  RH  075%=      5-min Rain = 0
KLBW 151210Z 06003KT 22/16 A3016 RMK A01 T02150161  RH  075%=      5-min Rain = 0
KLBW 151215Z 05002KT 22/16 A3016 RMK A01 T02160161  RH  074%=      5-min Rain = 0
KLBW 151220Z 35001KT 22/16 A3016 RMK A01 T02190164  RH  074%=      5-min Rain = 0
KLBW 151225Z 30003KT 22/16 A3017 RMK A01 T02190163  RH  074%=      5-min Rain = 0
KLBW 151230Z 30002KT 22/16 A3017 RMK A01 T02200163  RH  074%=      5-min Rain = 0
KLBW 151235Z 30001KT 22/16 A3017 RMK A01 T02210163  RH  073%=      5-min Rain = 0
KLBW 151240Z 30001KT 22/16 A3017 RMK A01 T02230164  RH  073%=      5-min Rain = 0
KLBW 151245Z 30001KT 23/16 A3017 RMK A01 T02260164  RH  071%=      5-min Rain = 0
KLBW 151250Z 31002KT 23/17 A3017 RMK A01 T02310166  RH  070%=      5-min Rain = 0
KLBW 151255Z 33003KT 24/17 A3018 RMK A01 T02370166  RH  068%=      5-min Rain = 0
KLBW 151300Z 36002KT 24/17 A3018 RMK A01 T02400165  RH  066%=      5-min Rain = 0
KLBW 151305Z 02003KT 24/16 A3018 RMK A01 T02430164  RH  065%=      5-min Rain = 0
KLBW 151310Z 02002KT 24/17 A3018 RMK A01 T02430165  RH  064%=      5-min Rain = 0
KLBW 151315Z 03003KT 24/17 A3018 RMK A01 T02440165  RH  065%=      5-min Rain = 0
KLBW 151320Z 02003KT 25/17 A3018 RMK A01 T02470165  RH  063%=      5-min Rain = 0
KLBW 151325Z 03003KT 25/17 A3018 RMK A01 T02510165  RH  062%=      5-min Rain = 0
KLBW 151330Z 04004KT 25/17 A3018 RMK A01 T02530165  RH  061%=      5-min Rain = 0
KLBW 151335Z 04005KT 26/17 A3018 RMK A01 T02560167  RH  061%=      5-min Rain = 0
KLBW 151340Z 06005KT 26/17 A3018 RMK A01 T02580167  RH  060%=      5-min Rain = 0
KLBW 151345Z 07005KT 26/17 A3018 RMK A01 T02570169  RH  061%=      5-min Rain = 0
KLBW 151350Z 06005KT 25/17 A3019 RMK A01 T02510168  RH  063%=      5-min Rain = 0
KLBW 151355Z 06005KT 26/17 A3019 RMK A01 T02550168  RH  062%=      5-min Rain = 0
KLBW 151400Z 07002KT 26/17 A3019 RMK A01 T02600169  RH  060%=      5-min Rain = 0
KLBW 151405Z 11002KT 27/17 A3018 RMK A01 T02660170  RH  058%=      5-min Rain = 0
KLBW 151410Z 10002KT 27/17 A3018 RMK A01 T02680170  RH  058%=      5-min Rain = 0
KLBW 151415Z 09003KT 27/17 A3018 RMK A01 T02710170  RH  057%=      5-min Rain = 0
KLBW 151420Z 06003KT 27/17 A3018 RMK A01 T02740171  RH  056%=      5-min Rain = 0
KLBW 151425Z 09004KT 28/17 A3018 RMK A01 T02780171  RH  055%=      5-min Rain = 0
KLBW 151430Z 09004KT 28/17 A3018 RMK A01 T02770171  RH  055%=      5-min Rain = 0
KLBW 151435Z 10004KT 28/17 A3018 RMK A01 T02770171  RH  055%=      5-min Rain = 0
KLBW 151440Z 11004KT 28/17 A3018 RMK A01 T02840172  RH  053%=      5-min Rain = 0
KLBW 151445Z 12003KT 29/17 A3018 RMK A01 T02900172  RH  051%=      5-min Rain = 0
KLBW 151450Z 08003KT 29/17 A3018 RMK A01 T02890172  RH  052%=      5-min Rain = 0
KLBW 151455Z 05002KT 29/17 A3018 RMK A01 T02870171  RH  052%=      5-min Rain = 0
KLBW 151500Z 06002KT 29/17 A3018 RMK A01 T02860170  RH  052%=      5-min Rain = 0
KLBW 151505Z 04004KT 29/17 A3018 RMK A01 T02900170  RH  051%=      5-min Rain = 0
KLBW 151510Z 01006KT 29/17 A3019 RMK A01 T02890170  RH  051%=      5-min Rain = 0
KLBW 151515Z 02008KT 29/17 A3019 RMK A01 T02920173  RH  051%=      5-min Rain = 0
KLBW 151520Z 03008G14KT 29/17 A3019 RMK A01 T02930174  RH  051%=      5-min Rain = 0
KLBW 151525Z 05007KT 30/17 A3019 RMK A01 T02950174  RH  051%=      5-min Rain = 0
KLBW 151530Z 06006KT 29/17 A3018 RMK A01 T02940174  RH  051%=      5-min Rain = 0
KLBW 151535Z 04006KT 30/17 A3018 RMK A01 T02960174  RH  050%=      5-min Rain = 0
KLBW 151540Z 05007KT 30/18 A3018 RMK A01 T02970175  RH  050%=      5-min Rain = 0
KLBW 151545Z 06004G9KT 30/18 A3018 RMK A01 T02980175  RH  050%=      5-min Rain = 0
KLBW 151550Z 09006KT 30/18 A3018 RMK A01 T03010176  RH  050%=      5-min Rain = 0
KLBW 151555Z 07004KT 30/17 A3018 RMK A01 T03020174  RH  049%=      5-min Rain = 0
KLBW 151605Z 11006KT 31/18 A3017 RMK A01 T03100176  RH  047%=      5-min Rain = 0
KLBW 151610Z 09005KT 31/18 A3017 RMK A01 T03120176  RH  047%=      5-min Rain = 0
KLBW 151615Z 09005KT 31/17 A3017 RMK A01 T03090174  RH  047%=      5-min Rain = 0
KLBW 151620Z 10006KT 31/18 A3017 RMK A01 T03110177  RH  047%=      5-min Rain = 0
KLBW 151625Z 08004KT 31/17 A3017 RMK A01 T03090172  RH  046%=      5-min Rain = 0
KLBW 151630Z 10006KT 31/17 A3017 RMK A01 T03140174  RH  046%=      5-min Rain = 0
KLBW 151635Z 13007KT 32/17 A3017 RMK A01 T03190171  RH  043%=      5-min Rain = 0
KLBW 151640Z 14008KT 32/18 A3016 RMK A01 T03150175  RH  045%=      5-min Rain = 0
KLBW 151645Z 15007KT 32/17 A3016 RMK A01 T03170174  RH  045%=      5-min Rain = 0
KLBW 151650Z 14005G10KT 32/17 A3016 RMK A01 T03220174  RH  044%=      5-min Rain = 0
KLBW 151655Z 13005KT 32/18 A3016 RMK A01 T03230175  RH  043%=      5-min Rain = 0
KLBW 151700Z 12008KT 33/18 A3015 RMK A01 T03290175  RH  042%=      5-min Rain = 0
KLBW 151705Z 12009KT 33/18 A3015 RMK A01 T03270177  RH  043%=      5-min Rain = 0
KLBW 151710Z 12007KT 33/18 A3015 RMK A01 T03250175  RH  043%=      5-min Rain = 0
KLBW 151715Z 17007KT 33/17 A3015 RMK A01 T03340170  RH  040%=      5-min Rain = 0
KLBW 151720Z 13006G12KT 34/17 A3014 RMK A01 T03350171  RH  040%=      5-min Rain = 0
KLBW 151725Z 12003KT 33/17 A3014 RMK A01 T03290167  RH  040%=      5-min Rain = 0
KLBW 151730Z 18006KT 34/16 A3014 RMK A01 T03380164  RH  037%=      5-min Rain = 0
KLBW 151735Z 17006G11KT 34/16 A3013 RMK A01 T03420162  RH  036%=      5-min Rain = 0
KLBW 151740Z 18005KT 34/16 A3013 RMK A01 T03400161  RH  036%=      5-min Rain = 0
KLBW 151745Z 19007G12KT 34/16 A3013 RMK A01 T03380160  RH  036%=      5-min Rain = 0
KLBW 151750Z 20006KT 33/16 A3013 RMK A01 T03330162  RH  038%=      5-min Rain = 0
KLBW 151755Z 21008KT 34/16 A3012 RMK A01 T03440155  RH  034%=      5-min Rain = 0
KLBW 151800Z 22006G11KT 34/15 A3012 RMK A01 T03400153  RH  034%=      5-min Rain = 0
KLBW 151805Z 21005KT 34/16 A3012 RMK A01 T03400159  RH  036%=      5-min Rain = 0
KLBW 151810Z 20010G15KT 35/16 A3012 RMK A01 T03470155  RH  033%=      5-min Rain = 0
KLBW 151815Z 22008KT 35/15 A3011 RMK A01 T03490153  RH  033%=      5-min Rain = 0
KLBW 151820Z 23007G12KT 34/15 A3011 RMK A01 T03440153  RH  033%=      5-min Rain = 0
KLBW 151825Z 21007G14KT 34/15 A3011 RMK A01 T03440154  RH  034%=      5-min Rain = 0
KLBW 151830Z 20007G15KT 35/16 A301 RMK A01 T03490156  RH  033%=      5-min Rain = 0
KLBW 151835Z 22008G13KT 35/16 A301 RMK A01 T03470159  RH  034%=      5-min Rain = 0
KLBW 151840Z 21008G13KT 35/16 A301 RMK A01 T03520162  RH  034%=      5-min Rain = 0
KLBW 151845Z 22007G14KT 35/16 A301 RMK A01 T03470158  RH  034%=      5-min Rain = 0
KLBW 151850Z 17004G10KT 35/16 A301 RMK A01 T03460155  RH  034%=      5-min Rain = 0
KLBW 151855Z 19005G11KT 35/15 A301 RMK A01 T03500154  RH  032%=      5-min Rain = 0
KLBW 151900Z 22005KT 36/15 A301 RMK A01 T03560151  RH  031%=      5-min Rain = 0
KLBW 151905Z 20009G14KT 36/15 A3009 RMK A01 T03570149  RH  030%=      5-min Rain = 0
KLBW 151910Z 19009G16KT 36/14 A3009 RMK A01 T03570143  RH  029%=      5-min Rain = 0
KLBW 151915Z 21009KT 36/14 A3009 RMK A01 T03630142  RH  028%=      5-min Rain = 0
KLBW 151920Z 18003G8KT 36/14 A3009 RMK A01 T03550138  RH  028%=      5-min Rain = 0
KLBW 151925Z 21008G14KT 36/14 A3009 RMK A01 T03570141  RH  029%=      5-min Rain = 0
KLBW 151930Z 26007G12KT 36/14 A3009 RMK A01 T03580143  RH  029%=      5-min Rain = 0
KLBW 151935Z 22006G11KT 36/14 A3008 RMK A01 T03580142  RH  029%=      5-min Rain = 0
KLBW 151940Z 23007G12KT 36/14 A3008 RMK A01 T03580142  RH  029%=      5-min Rain = 0
KLBW 151945Z 22004G9KT 36/14 A3008 RMK A01 T03580140  RH  028%=      5-min Rain = 0
KLBW 151950Z 21007G13KT 36/14 A3008 RMK A01 T03610138  RH  027%=      5-min Rain = 0
KLBW 151955Z 20005KT 35/14 A3007 RMK A01 T03450137  RH  030%=      5-min Rain = 0
KLBW 152000Z 24002KT 34/14 A3007 RMK A01 T03420138  RH  030%=      5-min Rain = 0
KLBW 152005Z 18005KT 35/14 A3007 RMK A01 T03540140  RH  029%=      5-min Rain = 0
KLBW 152010Z 25004KT 36/14 A3006 RMK A01 T03590139  RH  028%=      5-min Rain = 0
KLBW 152015Z 22004KT 36/14 A3006 RMK A01 T03600139  RH  028%=      5-min Rain = 0
KLBW 152020Z 21005G15KT 36/14 A3005 RMK A01 T03620138  RH  027%=      5-min Rain = 0
KLBW 152025Z 20009KT 37/14 A3005 RMK A01 T03670140  RH  027%=      5-min Rain = 0
KLBW 152030Z 21007G12KT 36/14 A3005 RMK A01 T03620138  RH  027%=      5-min Rain = 0
KLBW 152035Z 16005G10KT 37/14 A3004 RMK A01 T03650135  RH  026%=      5-min Rain = 0
KLBW 152040Z 12007KT 37/13 A3004 RMK A01 T03670133  RH  026%=      5-min Rain = 0
KLBW 152045Z 19006KT 37/13 A3004 RMK A01 T03690134  RH  026%=      5-min Rain = 0
KLBW 152050Z 20007G13KT 37/13 A3004 RMK A01 T03690133  RH  025%=      5-min Rain = 0
KLBW 152055Z 21008G13KT 37/13 A3004 RMK A01 T03700132  RH  025%=      5-min Rain = 0
KLBW 152100Z 17006KT 37/13 A3004 RMK A01 T03730131  RH  025%=      5-min Rain = 0
KLBW 152105Z 17004G10KT 38/13 A3003 RMK A01 T03770128  RH  024%=      5-min Rain = 0
KLBW 152110Z 18005G13KT 37/13 A3003 RMK A01 T03720131  RH  025%=      5-min Rain = 0
KLBW 152115Z 17009G15KT 37/13 A3003 RMK A01 T03730129  RH  024%=      5-min Rain = 0
KLBW 152120Z 16004G10KT 38/13 A3003 RMK A01 T03790131  RH  024%=      5-min Rain = 0
KLBW 152125Z 16007G12KT 38/13 A3003 RMK A01 T03750131  RH  024%=      5-min Rain = 0
KLBW 152130Z 18008KT 37/13 A3003 RMK A01 T03720128  RH  024%=      5-min Rain = 0
KLBW 152135Z 15007G13KT 37/13 A3002 RMK A01 T03740129  RH  024%=      5-min Rain = 0
KLBW 152140Z 17006G13KT 37/13 A3002 RMK A01 T03720127  RH  024%=      5-min Rain = 0
KLBW 152145Z 17007G12KT 37/13 A3002 RMK A01 T03710127  RH  024%=      5-min Rain = 0
KLBW 152150Z 18006KT 37/13 A3002 RMK A01 T03690126  RH  024%=      5-min Rain = 0
KLBW 152155Z 19007G12KT 36/13 A3002 RMK A01 T03630130  RH  026%=      5-min Rain = 0
KLBW 152200Z 20007G13KT 37/13 A3002 RMK A01 T03660129  RH  025%=      5-min Rain = 0
KLBW 152205Z 15006KT 36/13 A3002 RMK A01 T03600126  RH  026%=      5-min Rain = 0
KLBW 152210Z 16005KT 36/13 A3001 RMK A01 T03630125  RH  025%=      5-min Rain = 0
KLBW 152215Z 18006KT 37/13 A3001 RMK A01 T03650126  RH  025%=      5-min Rain = 0
KLBW 152220Z 20008G13KT 36/12 A3002 RMK A01 T03550123  RH  026%=      5-min Rain = 0
KLBW 152225Z 20013G21KT 34/14 A3002 RMK A01 T03350141  RH  032%=      5-min Rain = 0
KLBW 152230Z 19016G23KT 32/14 A3003 RMK A01 T03220144  RH  036%=      5-min Rain = 0
KLBW 152235Z 20015G22KT 32/15 A3003 RMK A01 T03200145  RH  036%=      5-min Rain = 0
KLBW 152240Z 20016G21KT 33/15 A3002 RMK A01 T03250147  RH  036%=      5-min Rain = 0
KLBW 152245Z 19015G21KT 33/15 A3002 RMK A01 T03300151  RH  036%=      5-min Rain = 0
KLBW 152250Z 20014G19KT 34/16 A3002 RMK A01 T03350156  RH  036%=      5-min Rain = 0
KLBW 152255Z 19014G22KT 33/16 A3002 RMK A01 T03300158  RH  037%=      5-min Rain = 0
KLBW 152300Z 19011G16KT 33/16 A3002 RMK A01 T03290161  RH  038%=      5-min Rain = 0
KLBW 152305Z 20009G15KT 33/16 A3002 RMK A01 T03330163  RH  038%=      5-min Rain = 0
KLBW 152310Z 19010G15KT 33/16 A3001 RMK A01 T03310159  RH  037%=      5-min Rain = 0
KLBW 152315Z 19013KT 33/15 A3001 RMK A01 T03300151  RH  036%=      5-min Rain = 0
KLBW 152320Z 20011G16KT 33/15 A3001 RMK A01 T03310145  RH  034%=      5-min Rain = 0
KLBW 152325Z 19012KT 34/13 A3001 RMK A01 T03360133  RH  031%=      5-min Rain = 0
KLBW 152330Z 19011G17KT 34/13 A3001 RMK A01 T03380125  RH  029%=      5-min Rain = 0
KLBW 152335Z 19014KT 34/13 A3001 RMK A01 T03350126  RH  029%=      5-min Rain = 0
KLBW 152340Z 19012KT 33/13 A3001 RMK A01 T03300127  RH  030%=      5-min Rain = 0
KLBW 152345Z 20012KT 33/13 A3001 RMK A01 T03250133  RH  032%=      5-min Rain = 0
KLBW 152350Z 20011KT 32/13 A3001 RMK A01 T03210134  RH  033%=      5-min Rain = 0
KLBW 152355Z 19011KT 32/13 A3001 RMK A01 T03200133  RH  033%=      5-min Rain = 0
KLBW 160000Z 19010G15KT 32/13 A3001 RMK A01 T03210129  RH  032%=      5-min Rain = 0
KLBW 160005Z 20009G14KT 33/13 A3001 RMK A01 T03270128  RH  031%=      5-min Rain = 0
KLBW 160010Z 20010KT 33/13 A3001 RMK A01 T03320126  RH  030%=      5-min Rain = 0
KLBW 160015Z 20010G15KT 33/12 A3001 RMK A01 T03340124  RH  029%=      5-min Rain = 0
KLBW 160020Z 20010G15KT 33/12 A3001 RMK A01 T03310123  RH  029%=      5-min Rain = 0
KLBW 160025Z 19013KT 33/13 A30 RMK A01 T03280132  RH  032%=      5-min Rain = 0
KLBW 160030Z 19011G16KT 33/14 A30 RMK A01 T03250137  RH  033%=      5-min Rain = 0
KLBW 160035Z 19011G16KT 32/14 A30 RMK A01 T03240139  RH  034%=      5-min Rain = 0
KLBW 160040Z 19008KT 32/14 A30 RMK A01 T03230141  RH  035%=      5-min Rain = 0
KLBW 160045Z 20011G18KT 32/14 A30 RMK A01 T03210142  RH  035%=      5-min Rain = 0
KLBW 160050Z 19011G16KT 32/14 A30 RMK A01 T03170144  RH  037%=      5-min Rain = 0
KLBW 160055Z 19011KT 32/14 A30 RMK A01 T03150144  RH  037%=      5-min Rain = 0
KLBW 160100Z 20008G13KT 31/14 A30 RMK A01 T03140144  RH  037%=      5-min Rain = 0
KLBW 160105Z 20007KT 31/15 A30 RMK A01 T03130145  RH  038%=      5-min Rain = 0
KLBW 160110Z 20009KT 31/14 A30 RMK A01 T03110144  RH  038%=      5-min Rain = 0
KLBW 160115Z 20008KT 31/14 A30 RMK A01 T03100144  RH  038%=      5-min Rain = 0
KLBW 160120Z 20008KT 31/14 A3001 RMK A01 T03090144  RH  038%=      5-min Rain = 0
KLBW 160125Z 20008KT 31/15 A30 RMK A01 T03060145  RH  039%=      5-min Rain = 0
KLBW 160130Z 19009KT 31/15 A3001 RMK A01 T03060145  RH  039%=      5-min Rain = 0
KLBW 160135Z 19007KT 30/15 A3001 RMK A01 T03040146  RH  040%=      5-min Rain = 0
KLBW 160140Z 19006KT 30/15 A3001 RMK A01 T03020147  RH  041%=      5-min Rain = 0
KLBW 160145Z 19008KT 30/15 A30 RMK A01 T03010148  RH  041%=      5-min Rain = 0
KLBW 160150Z 20007KT 30/15 A30 RMK A01 T03010148  RH  041%=      5-min Rain = 0
KLBW 160155Z 20007KT 30/15 A30 RMK A01 T02980149  RH  042%=      5-min Rain = 0
KLBW 160200Z 20006KT 30/15 A30 RMK A01 T02970149  RH  042%=      5-min Rain = 0
KLBW 160205Z 20006KT 29/15 A30 RMK A01 T02940149  RH  043%=      5-min Rain = 0
KLBW 160210Z 19007KT 30/15 A3001 RMK A01 T02950149  RH  043%=      5-min Rain = 0
KLBW 160215Z 18006KT 29/15 A3001 RMK A01 T02940149  RH  043%=      5-min Rain = 0
KLBW 160220Z 18005KT 29/15 A3001 RMK A01 T02920149  RH  044%=      5-min Rain = 0
KLBW 160225Z 18006KT 29/15 A3001 RMK A01 T02900148  RH  044%=      5-min Rain = 0
KLBW 160230Z 18006KT 29/15 A3001 RMK A01 T02900148  RH  044%=      5-min Rain = 0
KLBW 160235Z 18007KT 29/15 A3001 RMK A01 T02910148  RH  044%=      5-min Rain = 0
KLBW 160240Z 18006KT 29/15 A3001 RMK A01 T02910148  RH  043%=      5-min Rain = 0
KLBW 160245Z 18007KT 29/15 A3002 RMK A01 T02900146  RH  043%=      5-min Rain = 0
KLBW 160250Z 17007KT 29/14 A3002 RMK A01 T02900144  RH  043%=      5-min Rain = 0
KLBW 160255Z 16006KT 29/14 A3002 RMK A01 T02900142  RH  042%=      5-min Rain = 0
KLBW 160300Z 16006KT 29/14 A3003 RMK A01 T02880139  RH  042%=      5-min Rain = 0
KLBW 160305Z 17005KT 29/14 A3003 RMK A01 T02870137  RH  041%=      5-min Rain = 0
KLBW 160310Z 17006KT 29/13 A3003 RMK A01 T02860133  RH  041%=      5-min Rain = 0
KLBW 160315Z 17006KT 29/12 A3004 RMK A01 T02870122  RH  037%=      5-min Rain = 0
KLBW 160320Z 17005KT 29/12 A3004 RMK A01 T02880119  RH  037%=      5-min Rain = 0
KLBW 160325Z 16005KT 28/12 A3004 RMK A01 T02840117  RH  037%=      5-min Rain = 0
KLBW 160330Z 15006KT 28/11 A3004 RMK A01 T02840113  RH  036%=      5-min Rain = 0
KLBW 160335Z 16006KT 28/11 A3004 RMK A01 T02830112  RH  036%=      5-min Rain = 0
KLBW 160340Z 18006KT 29/11 A3005 RMK A01 T02850110  RH  035%=      5-min Rain = 0
KLBW 160345Z 17005KT 28/11 A3005 RMK A01 T02840110  RH  035%=      5-min Rain = 0
KLBW 160350Z 17005KT 28/11 A3005 RMK A01 T02800112  RH  036%=      5-min Rain = 0
KLBW 160355Z 19005KT 28/11 A3005 RMK A01 T02760112  RH  037%=      5-min Rain = 0
KLBW 160400Z 17005KT 27/11 A3005 RMK A01 T02730113  RH  038%=      5-min Rain = 0
KLBW 160405Z 17004KT 27/11 A3005 RMK A01 T02710113  RH  039%=      5-min Rain = 0
KLBW 160410Z 17004KT 27/11 A3005 RMK A01 T02690113  RH  039%=      5-min Rain = 0
KLBW 160415Z 16004KT 27/11 A3005 RMK A01 T02680113  RH  039%=      5-min Rain = 0
KLBW 160420Z 14004KT 27/11 A3005 RMK A01 T02700114  RH  039%=      5-min Rain = 0
KLBW 160425Z 12005KT 27/12 A3006 RMK A01 T02690121  RH  041%=      5-min Rain = 0
KLBW 160430Z 12005KT 27/12 A3006 RMK A01 T02710121  RH  041%=      5-min Rain = 0
KLBW 160435Z 11006KT 27/12 A3007 RMK A01 T02740119  RH  040%=      5-min Rain = 0
KLBW 160440Z 10006KT 28/13 A3007 RMK A01 T02760125  RH  041%=      5-min Rain = 0
KLBW 160445Z 08007KT 27/13 A3007 RMK A01 T02740130  RH  043%=      5-min Rain = 0
KLBW 160450Z 08007KT 27/14 A3007 RMK A01 T02730139  RH  046%=      5-min Rain = 0
KLBW 160455Z 08007KT 27/14 A3007 RMK A01 T02700142  RH  047%=      5-min Rain = 0

Page generated in 0.0094 seconds.